Rechercher aéroport 
image banner adimage banner adimage banner ad
image banner ad

73CL - Julian Hinds Pump Plant Airstrip

Situé à Desert Center, United States

ICAO - 73CL, IATA -

Données fournies par Airmate  

Information générale

Coordonnées: N33°41'56" W115°38'13"
Élévation : 1335 feet MSL.
Variation magnétique : 13° East
Voir autres Aéroports à California

Données opérationnelles

Special qualification required
Heure actuelle UTC:
Heure actuelle locale:
Météo à : KTRM - Jacqueline Cochran Rgnl ( 49 km )
METAR: KTRM 180552Z AUTO 33008KT 10SM CLR 31/06 A2985 RMK AO2 SLP111 T03110061 10372 20306 51017
TAF: KTRM 180520Z 1806/1906 33010KT P6SM FEW150 FM180900 33004KT P6SM FEW150 FM182200 16010KT P6SM SKC FM190200 32012KT P6SM SKC
Voir NOTAMs / SUP AIP / TFR affectant cet aéroport [VIEW]
Fréquences de communication: [VIEW]

Pistes:

Identifiant RWYQFULongueur (ft)Largeur (ft)SurfaceLDA (ft)
04200030ASPH
22200030ASPH

Coordonnées de l'aéroport

Adresse: Desert Center United States

Vue satellite de 73CL